Sheldon, North Dakota
Current Conditions -  °F | °C
As of 2:15 PM on Sunday 25 Jan 2015 (Local Time) from KGWR Reporting Station
Overcast Overcast  
Wind Chill: 20°   Ceiling: 6000
Heat Index: 27°   Visibility: 10mi
Dew Point: 19°   Wind: 6mph
Humidity: 74%   Direction: 250°WSW
Pressure: 30.03"   Gusts: NA
Location:  46.59°N, 97.49°W
Report Text: KGWR 252015Z AUTO 25005KT 10SM OVC060 M03/M07 A3003 RMK A01 P000
Loading
Personal Weather Stations






























Interactive Weather Map New forecast layout! Learn more

10-Day Weather Forecast

Advertisements
Track Severe Weather on mobile